Overview Statistics Trail Chart Weather Telemetry Raw packets
 

This is the latest recevied weather packets stored in our database for station/object LKCS. If no packets are shown the sender has not sent any weather packets the latest 10 day(s).

<< 13 14 15 16 17 18 19 >>
Time Temp. Humidity Pressure Rain* Wind** Luminosity Snow
1788172385 22.78° C 60% 1017 hPa - - - -
1788170594 23.89° C 53% 1017 hPa - - - -
1788168784 22.78° C 60% 1017 hPa - - - -
1788166969 22.78° C 60% 1017 hPa - - - -
1788165185 21.11° C 64% 1016 hPa - - - -
1788163373 21.11° C 73% 1016 hPa - - - -
1788161585 21.11° C 73% 1016 hPa - - - -
1788159795 20° C 77% 1016 hPa - - - -
1788157996 20° C 72% 1016 hPa - - - -
1788156175 17.78° C 82% 1015 hPa - - - -
1788154351 17.22° C 93% 1014 hPa - - - -
1788152593 17.22° C 88% 1015 hPa - - - -
1788150786 17.22° C 88% 1014 hPa - - - -
1788148962 17.22° C 88% 1015 hPa - - - -
1788147158 17.22° C 88% 1015 hPa - - - -
1788145387 17.22° C 88% 1015 hPa - - - -
1788143551 17.78° C 82% 1015 hPa - - - -
1788141764 17.22° C 88% 1015 hPa - - - -
1788139985 17.22° C 88% 1016 hPa - - - -
1788138186 17.22° C 88% 1016 hPa - - - -
1788136385 17.22° C 88% 1016 hPa - - - -
1788134586 17.22° C 82% 1016 hPa - - - -
1788132751 17.78° C 77% 1016 hPa - - - -
1788130987 17.78° C 77% 1016 hPa - - - -
1788129186 17.78° C 77% 1016 hPa - - - -

* Rain since midnight (hover to see other rain measurements)
** Current wind speed in m/s (hover to see current wind gust speed)